Time;durP1;ratioP1;P1;durP2;ratioP2;P2;SDS_P1;SDS_P2;PMS_P1;PMS_P2;Temp;Humidity;BMP_temperature;BMP_pressure;BME280_temperature;BME280_humidity;BME280_pressure;Samples;Min_cycle;Max_cycle;Signal;HPM_P1;HPM_P2
2021/07/29 00:02:12;;;;;;;3.21;1.46;;;;;;;13.99;88.43;99089.00;2020744;77;21742;-80
2021/07/29 00:05:15;;;;;;;4.95;1.80;;;;;;;14.06;88.96;99089.75;2020210;80;20641;-80
2021/07/29 00:08:18;;;;;;;9.82;1.75;;;;;;;14.12;88.94;99087.84;2020863;80;20188;-80
2021/07/29 00:11:22;;;;;;;5.35;1.71;;;;;;;14.17;88.76;99087.72;2018994;80;20211;-80
2021/07/29 00:14:25;;;;;;;4.91;2.10;;;;;;;14.25;88.58;99079.72;2019150;80;20172;-79
2021/07/29 00:19:03;;;;;;;4.63;2.00;;;;;;;14.29;88.22;99084.81;2017543;77;31954;-80
2021/07/29 00:20:53;;;;;;;4.45;1.74;;;;;;;14.33;88.08;99083.84;2019590;80;20698;-81
2021/07/29 00:23:55;;;;;;;6.11;1.73;;;;;;;14.38;88.21;99081.16;2019719;80;20241;-81
2021/07/29 00:26:58;;;;;;;2.11;1.44;;;;;;;14.42;88.09;99085.38;2019134;80;20881;-80
2021/07/29 00:30:00;;;;;;;2.29;1.50;;;;;;;14.39;88.01;99083.72;2019812;80;20887;-81
2021/07/29 00:33:03;;;;;;;5.07;1.66;;;;;;;14.39;88.29;99081.09;2019007;77;21166;-80
2021/07/29 00:36:06;;;;;;;7.99;2.10;;;;;;;14.39;88.18;99088.09;2022355;80;20167;-81
2021/07/29 00:39:08;;;;;;;2.55;1.33;;;;;;;14.39;88.21;99080.25;2020175;80;20350;-80
2021/07/29 00:42:11;;;;;;;3.14;1.61;;;;;;;14.43;87.96;99080.16;2020503;80;20229;-80
2021/07/29 00:45:14;;;;;;;6.91;1.80;;;;;;;14.43;87.88;99079.25;2020152;80;20189;-80
2021/07/29 00:48:18;;;;;;;5.35;1.76;;;;;;;14.42;87.48;99081.03;2022843;80;20222;-81
2021/07/29 00:51:22;;;;;;;4.96;1.70;;;;;;;14.43;86.48;99079.25;2023050;80;20233;-80
2021/07/29 00:54:28;;;;;;;4.20;1.64;;;;;;;14.40;86.74;99072.38;2019968;80;20193;-81
2021/07/29 00:57:31;;;;;;;3.50;1.84;;;;;;;14.39;87.01;99073.25;2019470;80;20188;-80
2021/07/29 01:00:34;;;;;;;4.44;1.61;;;;;;;14.37;86.95;99066.38;2020696;77;23537;-81
2021/07/29 01:03:37;;;;;;;6.99;1.70;;;;;;;14.35;86.95;99062.91;2024822;80;20186;-81
2021/07/29 01:06:40;;;;;;;5.46;1.77;;;;;;;14.30;86.92;99060.41;2025341;80;20167;-81
2021/07/29 01:09:43;;;;;;;4.66;1.65;;;;;;;14.28;87.06;99069.19;2025590;80;20191;-81
2021/07/29 01:12:45;;;;;;;4.76;1.80;;;;;;;14.20;87.17;99059.81;2025705;80;20670;-80
2021/07/29 01:15:48;;;;;;;4.68;1.96;;;;;;;14.14;87.38;99059.94;2022545;80;20261;-80
2021/07/29 01:18:51;;;;;;;3.58;1.60;;;;;;;14.06;87.58;99064.50;2018463;77;20191;-81
2021/07/29 01:21:54;;;;;;;4.24;1.76;;;;;;;14.04;87.57;99061.06;2021398;80;20218;-80
2021/07/29 01:24:57;;;;;;;4.79;1.74;;;;;;;14.01;87.63;99065.50;2019167;80;20179;-80
2021/07/29 01:28:00;;;;;;;3.65;1.59;;;;;;;13.98;87.67;99052.50;2018684;80;20176;-80
2021/07/29 01:31:02;;;;;;;5.86;1.81;;;;;;;13.94;87.85;99058.69;2019285;80;20201;-79
2021/07/29 01:34:05;;;;;;;5.20;2.21;;;;;;;13.87;87.99;99058.84;2022441;77;20241;-80
2021/07/29 01:37:08;;;;;;;5.55;2.05;;;;;;;13.84;88.12;99061.53;2024071;80;20200;-80
2021/07/29 01:40:11;;;;;;;3.54;2.14;;;;;;;13.84;88.15;99063.28;2024340;80;20171;-80
2021/07/29 01:43:14;;;;;;;5.81;1.83;;;;;;;13.84;88.32;99065.91;2023643;80;20244;-80
2021/07/29 01:46:16;;;;;;;5.32;1.67;;;;;;;13.85;88.67;99063.25;2022518;77;38502;-80
2021/07/29 01:49:22;;;;;;;4.66;2.09;;;;;;;13.90;88.75;99061.38;2018937;80;20210;-81
2021/07/29 01:52:24;;;;;;;3.47;2.01;;;;;;;13.98;88.91;99065.56;2019987;80;20192;-79
2021/07/29 01:55:27;;;;;;;7.11;2.00;;;;;;;14.02;89.10;99072.44;2018631;80;20238;-80
2021/07/29 01:58:30;;;;;;;2.35;2.14;;;;;;;13.99;89.42;99069.88;2019261;80;20183;-80
2021/07/29 02:01:33;;;;;;;3.04;2.03;;;;;;;14.05;89.76;99064.53;2018580;77;21465;-80
2021/07/29 02:04:36;;;;;;;4.84;1.84;;;;;;;14.17;89.09;99065.06;2020604;80;20279;-80
2021/07/29 02:07:39;;;;;;;2.33;1.56;;;;;;;14.24;88.66;99073.63;2020517;80;20536;-81
2021/07/29 02:10:41;;;;;;;3.45;2.04;;;;;;;14.28;88.32;99069.19;2019293;80;20197;-80
2021/07/29 02:13:44;;;;;;;4.54;1.90;;;;;;;14.31;88.13;99069.09;2019870;80;20180;-79
2021/07/29 02:16:46;;;;;;;4.21;2.21;;;;;;;14.37;87.54;99069.84;2021500;77;20289;-80
2021/07/29 02:19:49;;;;;;;3.65;1.81;;;;;;;14.42;87.17;99078.41;2025200;80;20212;-80
2021/07/29 02:22:52;;;;;;;3.28;1.99;;;;;;;14.46;87.26;99077.47;2024876;80;20255;-80
2021/07/29 02:25:54;;;;;;;3.69;2.11;;;;;;;14.45;87.27;99077.50;2024519;80;20167;-80
2021/07/29 02:28:57;;;;;;;3.22;1.77;;;;;;;14.45;86.84;99075.75;2026880;80;20259;-80
2021/07/29 02:31:59;;;;;;;2.91;2.08;;;;;;;14.48;86.02;99075.66;2022880;78;21831;-79
2021/07/29 02:35:02;;;;;;;2.33;1.63;;;;;;;14.51;85.78;99072.97;2021649;80;20214;-80
2021/07/29 02:38:05;;;;;;;2.94;1.75;;;;;;;14.52;85.58;99071.22;2021403;80;20164;-80
2021/07/29 02:41:07;;;;;;;6.28;1.96;;;;;;;14.54;85.43;99077.25;2020661;80;20679;-80
2021/07/29 02:44:10;;;;;;;9.50;1.94;;;;;;;14.58;85.29;99071.06;2021622;80;20236;-80
2021/07/29 02:47:14;;;;;;;3.92;1.69;;;;;;;14.64;85.22;99070.91;2023494;78;21827;-80
2021/07/29 02:50:16;;;;;;;2.96;1.71;;;;;;;14.71;84.89;99074.22;2026302;80;20207;-80
2021/07/29 02:53:19;;;;;;;4.07;1.67;;;;;;;14.76;84.80;99080.19;2027235;80;20167;-80
2021/07/29 02:56:22;;;;;;;2.85;1.88;;;;;;;14.80;84.69;99076.59;2027410;80;20201;-80
2021/07/29 02:59:25;;;;;;;3.41;1.99;;;;;;;14.84;84.65;99078.22;2027819;80;20573;-80
2021/07/29 03:02:27;;;;;;;2.88;1.60;;;;;;;14.89;84.58;99080.72;2022267;77;21173;-80
2021/07/29 03:05:30;;;;;;;2.85;1.80;;;;;;;14.93;84.70;99084.97;2021764;80;21178;-80
2021/07/29 03:08:33;;;;;;;5.01;1.69;;;;;;;14.94;84.58;99077.09;2021897;80;20197;-80
2021/07/29 03:11:36;;;;;;;3.71;2.28;;;;;;;14.96;84.78;99075.28;2021257;80;20640;-80
2021/07/29 03:14:40;;;;;;;3.13;2.00;;;;;;;14.97;84.68;99077.00;2020754;80;20180;-81
2021/07/29 03:17:42;;;;;;;6.59;2.20;;;;;;;14.97;84.55;99102.28;2023866;77;20331;-81
2021/07/29 03:20:45;;;;;;;2.64;1.88;;;;;;;14.96;84.48;99090.97;2026457;80;20191;-81
2021/07/29 03:23:47;;;;;;;5.22;1.99;;;;;;;14.98;84.41;99088.31;2025778;80;20184;-81
2021/07/29 03:26:50;;;;;;;6.88;2.19;;;;;;;14.98;84.53;99094.41;2025069;80;20172;-82
2021/07/29 03:29:52;;;;;;;3.16;1.76;;;;;;;14.98;84.58;99102.25;2025525;80;20194;-81
2021/07/29 03:32:55;;;;;;;1.90;1.66;;;;;;;15.00;84.66;99100.44;2022996;78;20191;-81
2021/07/29 03:35:57;;;;;;;4.19;1.71;;;;;;;15.05;84.40;99102.94;2023941;80;20241;-81
2021/07/29 03:39:05;;;;;;;6.79;1.61;;;;;;;15.07;84.35;99095.88;2025450;80;20219;-81
2021/07/29 03:42:07;;;;;;;3.99;1.50;;;;;;;15.11;84.22;99106.25;2024745;80;20196;-81
2021/07/29 03:45:10;;;;;;;3.13;1.69;;;;;;;15.16;83.93;99097.41;2026674;80;20716;-81
2021/07/29 03:48:13;;;;;;;2.10;1.45;;;;;;;15.19;83.93;99098.19;2027034;80;20326;-81
2021/07/29 03:51:15;;;;;;;3.92;1.69;;;;;;;15.21;83.85;99095.53;2026605;80;20219;-81
2021/07/29 03:54:18;;;;;;;2.90;1.71;;;;;;;15.24;83.52;99098.91;2026787;80;20175;-82
2021/07/29 03:57:23;;;;;;;5.91;1.60;;;;;;;15.27;83.13;99101.47;2025087;80;20197;-81
2021/07/29 04:00:26;;;;;;;4.31;1.67;;;;;;;15.29;83.02;99098.78;2024011;80;20221;-81
2021/07/29 04:03:29;;;;;;;4.16;1.26;;;;;;;15.30;82.94;99098.75;2026174;80;20592;-82
2021/07/29 04:06:32;;;;;;;2.33;1.50;;;;;;;15.32;82.78;99109.16;2025936;80;20196;-82
2021/07/29 04:09:36;;;;;;;4.11;1.46;;;;;;;15.35;82.39;99102.09;2023964;80;20273;-81
2021/07/29 04:12:39;;;;;;;3.75;1.46;;;;;;;15.38;82.25;99111.59;2026740;80;20194;-82
2021/07/29 04:15:42;;;;;;;1.45;1.30;;;;;;;15.37;82.54;99105.50;2025269;77;20190;-82
2021/07/29 04:18:45;;;;;;;5.90;1.40;;;;;;;15.40;82.82;99107.19;2030308;80;20210;-81
2021/07/29 04:21:48;;;;;;;2.03;1.15;;;;;;;15.40;82.68;99110.66;2031030;80;20224;-81
2021/07/29 04:24:55;;;;;;;3.08;1.35;;;;;;;15.39;82.86;99111.56;2030785;80;20217;-82
2021/07/29 04:27:58;;;;;;;1.44;1.25;;;;;;;15.39;82.77;99119.41;2030671;80;20195;-81
2021/07/29 04:31:00;;;;;;;6.78;1.49;;;;;;;15.40;82.98;99125.50;2027241;77;20179;-81
2021/07/29 04:34:03;;;;;;;2.51;1.41;;;;;;;15.39;82.57;99115.94;2028677;80;20475;-82
2021/07/29 04:37:06;;;;;;;4.88;1.20;;;;;;;15.40;82.61;99125.50;2026845;80;20209;-81
2021/07/29 04:40:09;;;;;;;2.90;1.38;;;;;;;15.41;82.78;99133.28;2025682;80;20207;-81
2021/07/29 04:43:11;;;;;;;5.28;2.16;;;;;;;15.43;82.30;99134.09;2028670;80;20350;-81
2021/07/29 04:46:14;;;;;;;1.92;1.44;;;;;;;15.46;81.00;99132.34;2027117;77;20740;-81
2021/07/29 04:49:20;;;;;;;2.96;1.33;;;;;;;15.47;80.58;99140.13;2029249;80;20783;-81
2021/07/29 04:52:23;;;;;;;3.97;1.50;;;;;;;15.49;80.37;99137.47;2029882;80;20234;-81
2021/07/29 04:55:25;;;;;;;2.05;1.17;;;;;;;15.46;80.78;99146.28;2031910;80;20172;-81
2021/07/29 04:58:28;;;;;;;3.14;1.30;;;;;;;15.44;80.66;99145.47;2028758;80;20166;-81
2021/07/29 05:01:30;;;;;;;6.57;1.30;;;;;;;15.41;80.21;99145.53;2026853;80;24995;-81
2021/07/29 05:04:34;;;;;;;3.42;1.29;;;;;;;15.41;80.07;99150.75;2026649;80;20241;-82
2021/07/29 05:07:36;;;;;;;2.72;1.36;;;;;;;15.39;80.63;99155.19;2029454;80;20502;-81
2021/07/29 05:10:39;;;;;;;3.31;1.20;;;;;;;15.49;81.19;99153.19;2026806;80;20172;-81
2021/07/29 05:13:41;;;;;;;2.50;1.29;;;;;;;15.69;80.91;99153.50;2027287;80;20639;-82
2021/07/29 05:16:45;;;;;;;2.34;1.10;;;;;;;15.89;80.14;99151.16;2028479;77;20179;-81
2021/07/29 05:19:47;;;;;;;2.04;1.67;;;;;;;15.94;79.11;99151.00;2030682;80;20205;-80
2021/07/29 05:22:50;;;;;;;3.46;1.39;;;;;;;15.94;78.36;99149.25;2029893;80;20183;-81
2021/07/29 05:25:52;;;;;;;5.06;1.14;;;;;;;15.93;77.70;99157.16;2028786;80;20192;-81
2021/07/29 05:28:55;;;;;;;1.33;0.95;;;;;;;15.94;77.92;99153.63;2030693;80;20160;-81
2021/07/29 05:31:58;;;;;;;4.24;1.19;;;;;;;16.19;77.24;99156.38;2032118;80;20310;-83
2021/07/29 05:35:00;;;;;;;4.86;1.29;;;;;;;16.79;75.40;99150.09;2030567;80;20223;-81
2021/07/29 05:38:03;;;;;;;9.54;1.39;;;;;;;17.34;73.45;99153.41;2023710;80;20260;-79
2021/07/29 05:41:06;;;;;;;1.25;1.02;;;;;;;17.79;71.80;99148.31;2023579;80;20694;-80
2021/07/29 05:44:12;;;;;;;2.64;1.00;;;;;;;18.17;70.29;99143.34;2023545;80;20796;-81
2021/07/29 05:47:15;;;;;;;3.67;1.01;;;;;;;18.27;68.51;99144.69;2022944;77;20867;-81
2021/07/29 05:50:18;;;;;;;2.38;0.75;;;;;;;18.60;67.94;99151.22;2024289;80;20191;-80
2021/07/29 05:53:20;;;;;;;4.84;0.94;;;;;;;19.01;66.19;99154.78;2024386;80;20201;-82
2021/07/29 05:56:23;;;;;;;3.66;1.00;;;;;;;19.42;64.97;99154.78;2027598;80;20167;-82
2021/07/29 05:59:25;;;;;;;3.94;0.86;;;;;;;19.74;63.48;99155.97;2027647;80;20220;-81
2021/07/29 06:02:28;;;;;;;2.31;1.10;;;;;;;19.77;61.50;99160.28;2025658;77;20195;-83
2021/07/29 06:05:31;;;;;;;2.75;0.74;;;;;;;19.95;61.58;99158.59;2027430;80;20313;-82
2021/07/29 06:08:34;;;;;;;2.34;0.89;;;;;;;20.10;60.97;99153.44;2025559;80;20187;-82
2021/07/29 06:11:37;;;;;;;2.54;1.19;;;;;;;20.26;60.59;99157.97;2025818;80;20186;-82
2021/07/29 06:14:39;;;;;;;1.35;0.75;;;;;;;20.51;59.88;99162.06;2024521;80;20374;-82
2021/07/29 06:17:45;;;;;;;2.79;0.80;;;;;;;20.66;58.13;99162.25;2028547;78;21275;-83
2021/07/29 06:20:48;;;;;;;1.94;0.80;;;;;;;20.83;57.72;99170.19;2028483;80;20186;-81
2021/07/29 06:23:50;;;;;;;1.95;0.80;;;;;;;20.90;57.42;99173.34;2027613;80;20836;-81
2021/07/29 06:26:54;;;;;;;5.09;0.65;;;;;;;20.98;56.95;99172.03;2025515;80;20263;-80
2021/07/29 06:29:56;;;;;;;2.01;1.04;;;;;;;21.12;57.14;99172.19;2023758;80;20278;-81
2021/07/29 06:32:59;;;;;;;3.21;0.77;;;;;;;21.31;56.95;99184.47;2018229;77;21652;-80
2021/07/29 06:36:03;;;;;;;3.58;0.80;;;;;;;21.44;55.82;99182.06;2018926;80;20265;-80
2021/07/29 06:39:05;;;;;;;1.15;0.70;;;;;;;21.67;54.90;99174.63;2018872;80;20718;-79
2021/07/29 06:42:08;;;;;;;2.38;0.93;;;;;;;21.70;54.51;99173.59;2018142;80;20189;-80
2021/07/29 06:45:11;;;;;;;4.36;0.90;;;;;;;21.63;54.32;99175.72;2019216;80;20241;-80
2021/07/29 06:48:17;;;;;;;2.76;0.70;;;;;;;21.54;54.20;99180.63;2023029;77;22248;-79
2021/07/29 06:51:21;;;;;;;3.76;0.91;;;;;;;21.75;54.54;99181.31;2024373;80;20179;-82
2021/07/29 06:54:23;;;;;;;2.67;0.80;;;;;;;21.97;54.16;99182.72;2023851;80;20187;-78
2021/07/29 06:57:25;;;;;;;1.63;0.66;;;;;;;21.48;53.71;99186.25;2023372;80;20193;-78
2021/07/29 07:00:29;;;;;;;2.35;0.79;;;;;;;21.05;55.10;99193.72;2021623;77;21254;-79
2021/07/29 07:03:32;;;;;;;6.51;0.90;;;;;;;20.75;56.30;99202.22;2019381;80;20184;-79
2021/07/29 07:06:35;;;;;;;1.06;0.80;;;;;;;20.47;56.80;99199.22;2020126;80;20479;-79
2021/07/29 07:09:38;;;;;;;2.25;0.88;;;;;;;20.23;58.50;99207.31;2018274;80;20167;-79
2021/07/29 07:12:40;;;;;;;1.56;0.70;;;;;;;19.90;58.83;99207.06;2018138;80;20168;-77
2021/07/29 07:15:46;;;;;;;2.08;1.04;;;;;;;19.58;59.46;99210.31;2018443;77;20294;-78
2021/07/29 07:18:49;;;;;;;3.46;0.80;;;;;;;19.47;60.45;99216.00;2023914;80;20600;-77
2021/07/29 07:21:52;;;;;;;2.60;1.00;;;;;;;19.31;60.68;99212.31;2024144;80;20163;-78
2021/07/29 07:24:54;;;;;;;4.51;0.89;;;;;;;19.24;61.90;99214.34;2023710;80;20187;-78
2021/07/29 07:27:57;;;;;;;2.71;1.10;;;;;;;19.16;62.88;99218.22;2023732;80;20179;-77
2021/07/29 07:30:59;;;;;;;2.13;0.91;;;;;;;18.99;62.36;99221.56;2019919;80;20199;-78
2021/07/29 07:34:02;;;;;;;2.11;0.91;;;;;;;18.89;63.09;99225.50;2018638;80;20688;-77
2021/07/29 07:37:05;;;;;;;2.56;1.10;;;;;;;18.87;63.83;99222.09;2018660;80;20211;-80
2021/07/29 07:40:08;;;;;;;2.80;0.90;;;;;;;18.83;63.99;99229.22;2023830;80;20193;-79
2021/07/29 07:43:11;;;;;;;3.53;1.01;;;;;;;18.84;64.00;99222.19;2019043;80;20205;-78
2021/07/29 07:46:13;;;;;;;2.72;1.10;;;;;;;18.74;63.60;99236.63;2019597;77;25922;-78
2021/07/29 07:49:16;;;;;;;2.26;1.00;;;;;;;18.69;63.78;99226.31;2024069;80;20665;-79
2021/07/29 07:52:18;;;;;;;2.05;1.06;;;;;;;18.78;64.46;99235.59;2024226;80;20765;-78
2021/07/29 07:55:21;;;;;;;2.19;1.20;;;;;;;18.86;64.16;99226.50;2023696;80;20493;-79
2021/07/29 07:58:24;;;;;;;3.04;1.00;;;;;;;19.00;64.40;99231.16;2023126;80;20207;-78
2021/07/29 08:01:26;;;;;;;2.70;0.98;;;;;;;19.09;63.85;99229.94;2021106;77;22509;-78
2021/07/29 08:04:29;;;;;;;2.28;1.10;;;;;;;19.01;63.14;99230.25;2021005;80;20167;-74
2021/07/29 08:07:32;;;;;;;2.90;1.05;;;;;;;18.95;63.56;99223.47;2017379;80;20602;-73
2021/07/29 08:10:35;;;;;;;4.14;1.00;;;;;;;19.05;64.26;99229.22;2017305;80;20208;-73
2021/07/29 08:13:38;;;;;;;1.46;0.90;;;;;;;19.22;63.75;99231.16;2018241;80;20207;-73
2021/07/29 08:16:41;;;;;;;3.74;0.90;;;;;;;19.34;63.08;99233.25;2020021;77;21311;-75
2021/07/29 08:19:43;;;;;;;3.09;1.08;;;;;;;19.41;62.39;99224.16;2022469;80;20176;-73
2021/07/29 08:22:46;;;;;;;2.84;0.79;;;;;;;19.61;61.95;99234.72;2022618;80;20321;-75
2021/07/29 08:25:49;;;;;;;3.60;0.80;;;;;;;19.70;60.26;99237.88;2022862;80;20179;-74
2021/07/29 08:28:54;;;;;;;1.95;0.70;;;;;;;19.73;59.96;99230.69;2023024;80;20220;-73
2021/07/29 08:31:58;;;;;;;1.09;0.81;;;;;;;19.97;60.36;99238.44;2019286;77;20203;-71
2021/07/29 08:35:01;;;;;;;2.85;0.95;;;;;;;20.13;58.51;99235.03;2017358;80;20280;-74
2021/07/29 08:38:04;;;;;;;1.39;0.80;;;;;;;20.20;59.04;99232.97;2018136;80;20300;-76
2021/07/29 08:41:08;;;;;;;0.69;0.57;;;;;;;20.48;58.60;99235.22;2017995;80;20196;-76
2021/07/29 08:44:11;;;;;;;1.54;0.80;;;;;;;20.63;57.37;99231.81;2018249;80;20730;-75
2021/07/29 08:47:21;;;;;;;2.03;0.69;;;;;;;20.76;57.60;99240.84;2020948;78;21231;-75
2021/07/29 08:50:32;;;;;;;2.03;0.90;;;;;;;20.98;57.78;99227.47;2023119;80;20171;-76
2021/07/29 08:53:34;;;;;;;3.01;0.80;;;;;;;21.35;57.28;99237.06;2022621;80;20171;-76
2021/07/29 08:56:37;;;;;;;0.93;0.74;;;;;;;21.52;55.96;99238.84;2023007;80;20251;-77
2021/07/29 08:59:40;;;;;;;1.69;0.70;;;;;;;21.75;53.91;99226.25;2023673;80;20749;-78
2021/07/29 09:02:42;;;;;;;1.13;0.70;;;;;;;21.81;53.28;99226.75;2022326;80;20662;-76
2021/07/29 09:05:59;;;;;;;1.17;0.82;;;;;;;21.67;54.74;99232.78;2022880;80;20170;-76
2021/07/29 09:09:01;;;;;;;1.84;0.73;;;;;;;21.68;54.35;99228.34;2022528;80;20235;-76
2021/07/29 09:12:14;;;;;;;0.90;0.70;;;;;;;21.74;55.60;99233.31;2022699;80;20202;-76
2021/07/29 09:15:19;;;;;;;2.51;0.70;;;;;;;21.68;54.50;99242.41;2021847;80;20256;-76
2021/07/29 09:18:34;;;;;;;1.14;0.68;;;;;;;21.51;54.98;99229.22;2017285;77;27042;-76
2021/07/29 09:21:37;;;;;;;2.72;0.75;;;;;;;21.32;54.74;99231.94;2017855;80;20179;-76
2021/07/29 09:25:02;;;;;;;0.89;0.69;;;;;;;21.05;54.45;99230.66;2017528;80;21265;-76
2021/07/29 09:28:07;;;;;;;3.26;0.77;;;;;;;21.16;54.32;99232.75;2021020;80;20310;-77
2021/07/29 09:31:17;;;;;;;1.41;0.60;;;;;;;21.95;54.06;99228.69;2018951;78;20251;-77
2021/07/29 09:34:20;;;;;;;2.25;0.71;;;;;;;21.97;50.80;99230.31;2022351;80;20684;-77
2021/07/29 09:37:22;;;;;;;1.44;0.75;;;;;;;22.09;51.63;99225.34;2023847;80;20159;-76
2021/07/29 09:40:25;;;;;;;1.21;0.57;;;;;;;22.25;52.41;99212.97;2023384;80;20219;-77
2021/07/29 09:43:33;;;;;;;1.91;0.60;;;;;;;22.43;51.32;99224.31;2022951;80;20175;-78
2021/07/29 09:46:36;;;;;;;1.49;0.63;;;;;;;22.74;52.01;99218.16;2021957;78;20263;-76
2021/07/29 09:49:40;;;;;;;1.38;0.60;;;;;;;22.80;50.30;99216.03;2023383;80;20286;-78
2021/07/29 09:52:43;;;;;;;1.48;0.70;;;;;;;22.49;49.17;99231.94;2023934;80;20228;-78
2021/07/29 09:55:46;;;;;;;2.40;0.70;;;;;;;22.44;49.13;99218.97;2023305;80;20833;-78
2021/07/29 09:58:48;;;;;;;1.00;0.60;;;;;;;22.13;49.82;99209.22;2023737;80;20191;-78
2021/07/29 10:01:51;;;;;;;1.05;0.50;;;;;;;21.98;52.33;99223.22;2019092;77;22059;-77
2021/07/29 10:04:59;;;;;;;0.70;0.61;;;;;;;21.81;51.91;99220.63;2018216;80;20650;-79
2021/07/29 10:08:05;;;;;;;1.14;0.60;;;;;;;21.92;52.03;99219.13;2019399;80;20205;-78
2021/07/29 10:11:13;;;;;;;0.60;0.59;;;;;;;21.86;50.06;99208.84;2018470;80;20777;-77
2021/07/29 10:14:47;;;;;;;1.17;0.57;;;;;;;22.16;50.98;99201.09;2017896;80;20229;-78
2021/07/29 10:18:01;;;;;;;1.06;0.64;;;;;;;22.71;49.80;99205.97;2022388;78;20208;-80
2021/07/29 10:21:30;;;;;;;0.99;0.52;;;;;;;22.66;46.17;99200.09;2024079;80;20866;-78
2021/07/29 10:24:54;;;;;;;1.96;0.70;;;;;;;22.49;47.83;99202.81;2023873;80;20179;-77
2021/07/29 10:28:20;;;;;;;0.94;0.60;;;;;;;22.00;46.73;99219.56;2023149;80;20190;-77
2021/07/29 10:31:23;;;;;;;1.40;0.60;;;;;;;21.58;48.97;99212.13;2020484;77;21690;-78
2021/07/29 10:34:27;;;;;;;1.41;0.66;;;;;;;21.37;49.81;99218.53;2018261;80;20184;-77
2021/07/29 10:37:41;;;;;;;1.15;0.68;;;;;;;21.01;50.88;99210.66;2018940;80;20219;-77
2021/07/29 10:40:44;;;;;;;4.01;0.60;;;;;;;21.00;52.22;99214.19;2018476;80;20188;-77
2021/07/29 10:43:47;;;;;;;3.91;0.61;;;;;;;21.03;51.51;99217.56;2018387;80;20204;-77
2021/07/29 10:46:55;;;;;;;1.31;0.70;;;;;;;21.42;52.93;99214.69;2016402;77;21122;-77
2021/07/29 10:49:58;;;;;;;;;;;;;;;22.02;50.25;99211.53;2018354;80;20801;-78
2021/07/29 10:53:00;;;;;;;2.21;0.55;;;;;;;22.61;49.36;99202.13;2017717;80;20477;-77
2021/07/29 10:56:03;;;;;;;0.85;0.50;;;;;;;23.17;46.12;99196.25;2019071;80;20230;-79
2021/07/29 10:59:06;;;;;;;2.09;0.60;;;;;;;23.61;44.50;99198.03;2018280;80;20314;-77
2021/07/29 11:02:12;;;;;;;2.26;0.80;;;;;;;23.97;44.44;99204.69;2020645;78;24360;-76
2021/07/29 11:05:26;;;;;;;1.46;0.60;;;;;;;23.99;42.78;99190.38;2023063;80;20175;-77
2021/07/29 11:08:29;;;;;;;2.97;0.51;;;;;;;24.38;43.66;99194.97;2019998;80;20190;-76
2021/07/29 11:11:37;;;;;;;1.86;0.64;;;;;;;24.35;40.52;99203.16;2023428;80;20264;-77
2021/07/29 11:14:40;;;;;;;1.62;0.47;;;;;;;23.63;42.25;99197.94;2026403;80;20213;-77
2021/07/29 11:17:42;;;;;;;0.51;0.50;;;;;;;23.56;42.92;99204.53;2018246;77;20473;-77
2021/07/29 11:20:45;;;;;;;1.25;0.50;;;;;;;23.62;43.31;99199.75;2018009;80;20667;-77
2021/07/29 11:23:48;;;;;;;3.11;0.57;;;;;;;23.91;42.83;99191.81;2017278;80;20199;-78
2021/07/29 11:26:51;;;;;;;1.15;0.57;;;;;;;24.06;42.26;99197.00;2018908;80;20204;-77
2021/07/29 11:29:59;;;;;;;0.69;0.50;;;;;;;23.60;42.67;99203.44;2017985;80;20707;-76
2021/07/29 11:33:01;;;;;;;1.41;0.60;;;;;;;23.16;41.08;99206.91;2017417;77;20171;-76
2021/07/29 11:36:08;;;;;;;2.16;0.70;;;;;;;22.79;43.12;99208.16;2017239;80;20209;-76
2021/07/29 11:39:11;;;;;;;1.26;0.70;;;;;;;22.62;45.14;99214.41;2017509;80;20167;-76
2021/07/29 11:42:13;;;;;;;2.70;0.70;;;;;;;22.50;46.59;99210.69;2018296;80;20237;-77
2021/07/29 11:45:22;;;;;;;1.26;0.60;;;;;;;22.39;46.62;99196.31;2018631;80;20176;-76
2021/07/29 11:48:25;;;;;;;1.40;0.60;;;;;;;22.46;45.21;99203.00;2022693;80;20191;-76
2021/07/29 11:51:27;;;;;;;3.96;0.80;;;;;;;22.37;45.63;99200.84;2026686;80;20811;-77
2021/07/29 11:54:32;;;;;;;2.71;0.68;;;;;;;22.33;46.64;99197.53;2022455;80;21163;-76
2021/07/29 11:57:37;;;;;;;1.69;0.60;;;;;;;22.71;46.48;99197.16;2018940;80;20171;-77
2021/07/29 12:00:41;;;;;;;0.84;0.54;;;;;;;23.31;45.22;99197.19;2021381;77;22076;-76
2021/07/29 12:03:48;;;;;;;1.19;0.64;;;;;;;23.61;42.63;99192.75;2018243;80;20594;-75
2021/07/29 12:06:51;;;;;;;1.04;0.70;;;;;;;23.83;44.50;99189.63;2016624;80;20279;-76
2021/07/29 12:09:54;;;;;;;1.89;0.56;;;;;;;23.91;43.22;99195.31;2017613;80;20294;-77
2021/07/29 12:12:57;;;;;;;1.06;0.60;;;;;;;23.98;41.18;99191.31;2018385;80;20196;-77
2021/07/29 12:15:59;;;;;;;2.30;0.61;;;;;;;24.15;42.06;99176.16;2017783;77;31424;-77
2021/07/29 12:19:02;;;;;;;2.58;0.91;;;;;;;24.18;39.37;99175.94;2022601;80;20335;-75
2021/07/29 12:22:25;;;;;;;2.92;0.60;;;;;;;24.28;41.21;99171.78;2022737;80;20175;-76
2021/07/29 12:25:31;;;;;;;1.08;0.50;;;;;;;24.14;42.64;99172.63;2022462;80;20221;-77
2021/07/29 12:28:37;;;;;;;0.96;0.60;;;;;;;23.96;43.37;99181.75;2026444;80;20264;-76
2021/07/29 12:31:45;;;;;;;2.30;0.70;;;;;;;23.60;42.83;99175.13;2018769;77;21506;-75
2021/07/29 12:34:49;;;;;;;2.58;0.68;;;;;;;23.55;44.29;99176.34;2018118;80;20175;-76
2021/07/29 12:37:57;;;;;;;1.67;0.68;;;;;;;23.37;45.61;99175.66;2017724;80;20207;-76
2021/07/29 12:41:01;;;;;;;2.15;0.68;;;;;;;23.11;43.80;99171.88;2017081;80;20180;-76
2021/07/29 12:44:20;;;;;;;1.27;0.74;;;;;;;22.95;45.33;99169.28;2018213;80;20184;-75
2021/07/29 12:47:23;;;;;;;1.17;0.65;;;;;;;22.87;45.42;99167.09;2019298;77;41551;-76
2021/07/29 12:50:37;;;;;;;3.69;0.85;;;;;;;22.82;45.45;99161.22;2022044;80;20287;-76
2021/07/29 12:53:40;;;;;;;2.04;0.57;;;;;;;22.81;46.71;99162.16;2019060;80;20167;-76
2021/07/29 12:56:44;;;;;;;1.27;0.65;;;;;;;23.33;46.64;99156.41;2021628;80;20190;-76
2021/07/29 12:59:47;;;;;;;1.73;0.65;;;;;;;23.93;45.27;99152.78;2022352;80;20794;-76
2021/07/29 13:02:50;;;;;;;1.35;0.60;;;;;;;24.19;42.88;99154.63;2017226;80;20834;-72
2021/07/29 13:05:56;;;;;;;0.81;0.73;;;;;;;24.25;42.78;99156.91;2018166;80;20211;-77
2021/07/29 13:08:59;;;;;;;3.72;0.75;;;;;;;24.19;42.27;99148.47;2017725;80;20183;-77
2021/07/29 13:12:05;;;;;;;0.69;0.69;;;;;;;24.17;42.51;99143.25;2017385;80;20187;-76
2021/07/29 13:15:08;;;;;;;1.35;0.70;;;;;;;23.84;43.18;99148.03;2017447;80;20176;-77
2021/07/29 13:18:11;;;;;;;1.31;0.75;;;;;;;24.27;44.23;99149.69;2021827;77;20289;-76
2021/07/29 13:21:14;;;;;;;2.14;0.60;;;;;;;24.37;41.45;99134.03;2023043;80;20190;-76
2021/07/29 13:24:17;;;;;;;0.85;0.52;;;;;;;24.20;42.90;99131.59;2021977;80;20288;-77
2021/07/29 13:27:20;;;;;;;1.67;0.60;;;;;;;23.69;41.52;99136.59;2022051;80;20167;-78
2021/07/29 13:30:22;;;;;;;0.86;0.50;;;;;;;23.59;42.70;99138.13;2021226;80;20285;-77
2021/07/29 13:33:25;;;;;;;1.91;0.60;;;;;;;23.61;44.51;99130.91;2016907;80;24918;-77
2021/07/29 13:36:28;;;;;;;0.95;0.57;;;;;;;23.76;43.88;99132.63;2015736;80;20188;-77
2021/07/29 13:39:31;;;;;;;1.34;0.60;;;;;;;24.06;42.55;99124.53;2017315;80;20172;-76
2021/07/29 13:42:34;;;;;;;2.38;0.47;;;;;;;24.26;42.75;99126.75;2017105;80;20217;-76
2021/07/29 13:45:36;;;;;;;1.11;0.60;;;;;;;24.39;43.22;99132.13;2015745;77;20195;-76
2021/07/29 13:48:39;;;;;;;1.05;0.60;;;;;;;24.51;42.46;99120.72;2017925;80;20939;-76
2021/07/29 13:51:42;;;;;;;1.98;0.54;;;;;;;24.33;41.85;99121.94;2016805;80;20179;-76
2021/07/29 13:54:45;;;;;;;1.94;0.65;;;;;;;24.17;41.33;99113.22;2017734;80;20329;-76
2021/07/29 13:57:48;;;;;;;1.44;0.81;;;;;;;24.03;43.06;99116.75;2017105;80;20168;-76
2021/07/29 14:00:51;;;;;;;2.60;0.54;;;;;;;24.11;44.38;99115.31;2016691;77;64368;-76
2021/07/29 14:03:55;;;;;;;0.76;0.60;;;;;;;23.90;41.45;99119.34;2020765;80;20175;-76
2021/07/29 14:06:58;;;;;;;1.67;0.68;;;;;;;23.87;43.21;99114.22;2021895;80;20310;-75
2021/07/29 14:10:01;;;;;;;1.26;0.52;;;;;;;24.07;42.58;99113.81;2022487;80;20192;-75
2021/07/29 14:13:03;;;;;;;0.85;0.60;;;;;;;24.00;43.72;99112.50;2022595;80;20195;-76
2021/07/29 14:16:07;;;;;;;1.81;0.57;;;;;;;24.36;44.28;99096.03;2019360;77;21346;-76
2021/07/29 14:19:13;;;;;;;2.54;0.60;;;;;;;24.66;43.96;99105.59;2017256;80;20283;-76
2021/07/29 14:25:20;;;;;;;0.74;0.60;;;;;;;23.99;42.13;99108.16;2017785;80;20191;-75
2021/07/29 14:28:25;;;;;;;2.54;0.68;;;;;;;23.69;43.26;99096.81;2018265;80;20167;-76
2021/07/29 14:31:27;;;;;;;2.80;0.66;;;;;;;23.56;43.56;99098.53;2019561;77;20167;-76